Time;durP1;ratioP1;P1;durP2;ratioP2;P2;SDS_P1;SDS_P2;PMS_P1;PMS_P2;Temp;Humidity;BMP_temperature;BMP_pressure;BME280_temperature;BME280_humidity;BME280_pressure;Samples;Min_cycle;Max_cycle;Signal;HPM_P1;HPM_P2
2024/03/30 00:01:48;;;;;;;16.15;5.15;;;;;;;8.23;100.00;95595.59;5107819;28;20734;-80
2024/03/30 00:04:14;;;;;;;18.98;5.32;;;;;;;8.24;100.00;95594.53;5110236;28;20622;-81
2024/03/30 00:06:41;;;;;;;13.23;4.65;;;;;;;8.21;100.00;95600.34;5100087;28;20404;-82
2024/03/30 00:09:07;;;;;;;25.95;5.00;;;;;;;8.24;100.00;95589.25;5110317;28;20861;-79
2024/03/30 00:11:34;;;;;;;26.13;4.90;;;;;;;8.18;100.00;95604.34;5101170;28;20402;-81
2024/03/30 00:14:00;;;;;;;16.05;4.40;;;;;;;8.20;100.00;95598.75;5097879;28;20418;-80
2024/03/30 00:16:27;;;;;;;22.35;5.13;;;;;;;8.18;100.00;95590.38;5104353;28;20464;-79
2024/03/30 00:18:56;;;;;;;17.77;4.55;;;;;;;8.19;100.00;95610.41;5116046;28;20392;-79
2024/03/30 00:21:22;;;;;;;18.13;4.17;;;;;;;8.13;100.00;95599.88;5103590;28;20411;-79
2024/03/30 00:23:48;;;;;;;20.98;5.28;;;;;;;8.13;100.00;95596.47;5100484;28;20500;-79
2024/03/30 00:26:14;;;;;;;21.20;3.93;;;;;;;8.08;100.00;95593.88;5098026;28;20401;-80
2024/03/30 00:28:41;;;;;;;26.30;4.65;;;;;;;8.08;100.00;95589.41;5097326;28;20410;-79
2024/03/30 00:31:07;;;;;;;20.95;5.22;;;;;;;8.04;100.00;95593.66;5097684;28;20398;-79
2024/03/30 00:33:34;;;;;;;27.15;5.72;;;;;;;8.04;100.00;95591.00;5104464;28;20419;-79
2024/03/30 00:36:00;;;;;;;23.63;4.78;;;;;;;8.01;100.00;95585.53;5095563;28;20430;-81
2024/03/30 00:38:27;;;;;;;24.67;4.60;;;;;;;8.01;100.00;95586.31;5111589;28;20396;-80
2024/03/30 00:40:53;;;;;;;15.32;4.05;;;;;;;7.99;100.00;95585.81;5114897;28;20952;-81
2024/03/30 00:43:20;;;;;;;21.77;4.63;;;;;;;7.99;100.00;95587.66;5116927;28;20426;-81
2024/03/30 00:45:46;;;;;;;30.98;4.75;;;;;;;7.98;100.00;95586.06;5116499;28;20380;-81
2024/03/30 00:48:12;;;;;;;26.80;4.70;;;;;;;8.00;100.00;95582.09;5111074;28;20381;-81
2024/03/30 00:50:40;;;;;;;19.58;4.78;;;;;;;7.99;100.00;95580.53;5111017;28;20386;-79
2024/03/30 00:53:06;;;;;;;31.05;4.93;;;;;;;8.00;100.00;95589.22;5100063;28;20420;-80
2024/03/30 00:55:32;;;;;;;29.07;5.60;;;;;;;7.96;100.00;95589.00;5107088;28;20453;-81
2024/03/30 00:57:59;;;;;;;29.65;5.95;;;;;;;7.98;100.00;95584.22;5100201;28;20401;-80
2024/03/30 01:00:27;;;;;;;30.58;5.55;;;;;;;7.96;100.00;95575.84;5102231;28;20390;-80
2024/03/30 01:02:53;;;;;;;25.90;5.05;;;;;;;7.96;100.00;95582.94;5104990;28;20411;-81
2024/03/30 01:05:20;;;;;;;33.95;6.07;;;;;;;7.95;100.00;95576.91;5105061;28;20397;-82
2024/03/30 01:07:48;;;;;;;34.23;6.13;;;;;;;7.94;100.00;95585.84;5105205;28;20389;-80
2024/03/30 01:10:15;;;;;;;31.80;4.85;;;;;;;7.92;100.00;95582.72;5096484;28;20429;-80
2024/03/30 01:12:42;;;;;;;32.50;5.00;;;;;;;7.89;100.00;95575.38;5096998;28;20808;-81
2024/03/30 01:15:09;;;;;;;30.73;5.07;;;;;;;7.87;100.00;95580.13;5103918;28;20394;-81
2024/03/30 01:17:37;;;;;;;31.27;5.20;;;;;;;7.88;100.00;95581.72;5112302;28;20424;-81
2024/03/30 01:20:05;;;;;;;39.63;5.30;;;;;;;7.84;100.00;95575.41;5104979;28;20400;-81
2024/03/30 01:22:32;;;;;;;34.17;6.03;;;;;;;7.84;100.00;95580.66;5105093;28;20376;-82
2024/03/30 01:25:00;;;;;;;28.90;5.32;;;;;;;7.82;100.00;95574.88;5107592;28;20417;-81
2024/03/30 01:27:27;;;;;;;46.65;6.18;;;;;;;7.87;100.00;95574.06;5099611;28;20434;-80
2024/03/30 01:29:55;;;;;;;45.90;6.60;;;;;;;7.89;100.00;95572.75;5100124;28;20398;-81
2024/03/30 01:32:21;;;;;;;40.25;7.22;;;;;;;7.91;100.00;95572.44;5107240;28;20378;-81
2024/03/30 01:34:48;;;;;;;42.80;6.93;;;;;;;7.92;100.00;95568.75;5100668;28;20470;-80
2024/03/30 01:37:14;;;;;;;47.03;5.77;;;;;;;7.92;100.00;95568.75;5112713;28;20390;-80
2024/03/30 01:39:40;;;;;;;48.22;7.10;;;;;;;7.89;100.00;95564.84;5104891;28;20426;-80
2024/03/30 01:42:08;;;;;;;38.42;5.93;;;;;;;7.91;100.00;95567.16;5116867;28;20445;-79
2024/03/30 01:44:34;;;;;;;54.90;6.78;;;;;;;7.87;100.00;95572.22;5108384;28;20803;-80
2024/03/30 01:47:00;;;;;;;58.05;9.63;;;;;;;7.94;100.00;95569.25;5099980;28;20435;-79
2024/03/30 01:49:27;;;;;;;45.43;6.90;;;;;;;7.94;100.00;95569.25;5103095;28;20398;-80
2024/03/30 01:51:54;;;;;;;47.75;7.78;;;;;;;7.98;100.00;95567.63;5110787;28;20888;-79
2024/03/30 01:54:21;;;;;;;47.53;6.82;;;;;;;7.99;100.00;95574.47;5100368;28;20414;-80
2024/03/30 01:56:50;;;;;;;61.03;9.10;;;;;;;7.96;100.00;95567.94;5119726;28;20546;-81
2024/03/30 01:59:18;;;;;;;39.67;7.00;;;;;;;7.98;100.00;95560.50;5102511;28;20397;-80
2024/03/30 02:01:47;;;;;;;55.05;7.95;;;;;;;7.98;100.00;95567.63;5099996;28;20397;-80
2024/03/30 02:04:15;;;;;;;47.30;6.88;;;;;;;7.98;100.00;95560.50;5100156;28;20394;-79
2024/03/30 02:06:43;;;;;;;65.13;7.57;;;;;;;8.00;100.00;95560.25;5100188;28;20894;-80
2024/03/30 02:09:11;;;;;;;45.58;8.43;;;;;;;8.02;100.00;95558.13;5113265;28;20404;-79
2024/03/30 02:11:38;;;;;;;47.60;7.47;;;;;;;8.01;100.00;95553.91;5112446;28;20397;-80
2024/03/30 02:14:05;;;;;;;53.50;9.15;;;;;;;8.03;100.00;95551.78;5112864;28;20765;-80
2024/03/30 02:16:34;;;;;;;44.95;7.55;;;;;;;7.99;100.00;95556.03;5114247;28;20424;-77
2024/03/30 02:19:00;;;;;;;50.03;8.45;;;;;;;7.93;100.00;95568.47;5110072;28;20455;-80
2024/03/30 02:21:26;;;;;;;68.45;7.95;;;;;;;7.91;100.00;95557.44;5107193;28;20396;-79
2024/03/30 02:23:54;;;;;;;66.90;8.80;;;;;;;7.96;100.00;95564.50;5103276;28;20398;-79
2024/03/30 02:26:20;;;;;;;51.17;6.85;;;;;;;7.97;100.00;95568.72;5123226;28;20384;-79
2024/03/30 02:28:48;;;;;;;51.27;6.53;;;;;;;7.93;100.00;95567.69;5120684;28;20887;-80
2024/03/30 02:31:15;;;;;;;53.43;6.90;;;;;;;7.95;100.00;95566.34;5111526;28;20398;-80
2024/03/30 02:33:42;;;;;;;55.88;7.45;;;;;;;7.96;100.00;95567.94;5108204;28;20511;-81
2024/03/30 02:36:09;;;;;;;65.17;8.00;;;;;;;7.96;100.00;95556.59;5112846;28;20467;-79
2024/03/30 02:38:35;;;;;;;58.13;8.65;;;;;;;7.96;100.00;95556.59;5103278;28;20398;-79
2024/03/30 02:41:03;;;;;;;47.83;7.60;;;;;;;8.00;100.00;95560.25;5107936;28;20692;-79
2024/03/30 02:43:30;;;;;;;61.95;9.40;;;;;;;8.01;100.00;95548.66;5114472;28;20939;-79
2024/03/30 02:45:56;;;;;;;55.92;8.85;;;;;;;8.01;100.00;95552.06;5117452;28;20430;-80
2024/03/30 02:48:22;;;;;;;47.78;8.07;;;;;;;8.01;100.00;95544.16;5113284;28;20392;-79
2024/03/30 02:50:48;;;;;;;48.20;7.38;;;;;;;8.04;100.00;95545.47;5119441;28;20389;-79
2024/03/30 02:53:14;;;;;;;54.58;8.73;;;;;;;8.04;100.00;95540.94;5114072;28;20418;-80
2024/03/30 02:55:41;;;;;;;39.15;6.80;;;;;;;8.02;100.00;95545.72;5098428;28;20394;-80
2024/03/30 02:58:08;;;;;;;36.35;5.90;;;;;;;8.03;100.00;95536.78;5107681;28;20390;-80
2024/03/30 03:00:34;;;;;;;45.67;7.07;;;;;;;8.02;100.00;95550.22;5099750;28;20491;-79
2024/03/30 03:03:00;;;;;;;45.47;7.53;;;;;;;7.99;100.00;95538.38;5107282;28;20390;-79
2024/03/30 03:05:26;;;;;;;48.85;8.38;;;;;;;8.02;100.00;95540.47;5104526;28;20389;-80
2024/03/30 03:07:52;;;;;;;64.78;9.32;;;;;;;8.04;100.00;95554.13;5110754;28;20398;-80
2024/03/30 03:10:19;;;;;;;36.42;6.53;;;;;;;8.02;100.00;95553.63;5100304;28;20391;-79
2024/03/30 03:12:45;;;;;;;56.58;8.85;;;;;;;8.04;100.00;95546.22;5108367;28;20396;-80
2024/03/30 03:15:12;;;;;;;59.80;9.07;;;;;;;8.05;100.00;95539.88;5119647;28;20384;-80
2024/03/30 03:17:38;;;;;;;44.40;6.50;;;;;;;8.03;100.00;95541.25;5115872;28;20395;-79
2024/03/30 03:20:05;;;;;;;61.35;7.38;;;;;;;8.04;100.00;95542.81;5109632;28;20804;-80
2024/03/30 03:22:33;;;;;;;46.03;6.72;;;;;;;8.04;100.00;95534.91;5104224;28;20481;-79
2024/03/30 03:24:59;;;;;;;48.58;6.80;;;;;;;8.00;100.00;95526.78;5123594;28;20388;-79
2024/03/30 03:27:26;;;;;;;48.30;7.15;;;;;;;8.00;100.00;95532.03;5121865;28;20389;-80
2024/03/30 03:29:52;;;;;;;34.03;5.78;;;;;;;8.00;100.00;95520.72;5123806;28;20394;-78
2024/03/30 03:32:19;;;;;;;50.38;6.60;;;;;;;7.97;100.00;95516.03;5130308;28;20423;-79
2024/03/30 03:34:45;;;;;;;44.80;7.88;;;;;;;7.99;100.00;95513.88;5111706;28;20418;-80
2024/03/30 03:37:11;;;;;;;44.38;7.07;;;;;;;7.99;100.00;95513.88;5103703;28;20424;-80
2024/03/30 03:39:38;;;;;;;43.70;6.97;;;;;;;7.94;100.00;95517.34;5112177;28;20818;-81
2024/03/30 03:42:04;;;;;;;51.30;7.15;;;;;;;7.94;100.00;95512.09;5103637;28;20389;-80
2024/03/30 03:44:30;;;;;;;32.55;5.72;;;;;;;7.94;100.00;95508.66;5111680;28;20401;-81
2024/03/30 03:46:57;;;;;;;42.07;5.93;;;;;;;7.94;100.00;95506.03;5100292;28;20860;-80
2024/03/30 03:49:24;;;;;;;49.65;5.90;;;;;;;7.94;100.00;95512.09;5105703;28;20526;-81
2024/03/30 03:51:50;;;;;;;41.08;6.50;;;;;;;7.93;100.00;95512.38;5103283;28;20830;-80
2024/03/30 03:54:19;;;;;;;40.70;6.40;;;;;;;7.93;100.00;95518.41;5106650;28;20413;-79
2024/03/30 03:56:45;;;;;;;56.42;6.82;;;;;;;7.89;100.00;95514.78;5110521;28;20453;-81
2024/03/30 03:59:11;;;;;;;52.23;7.03;;;;;;;7.92;100.00;95508.94;5106388;28;20477;-81
2024/03/30 04:01:37;;;;;;;51.15;8.60;;;;;;;7.85;100.00;95505.84;5107444;28;20441;-81
2024/03/30 04:04:04;;;;;;;40.03;6.68;;;;;;;7.88;100.00;95515.84;5105517;28;20407;-80
2024/03/30 04:06:31;;;;;;;52.75;6.53;;;;;;;7.84;100.00;95511.41;5110964;28;20471;-79
2024/03/30 04:08:57;;;;;;;50.38;7.15;;;;;;;7.80;100.00;95515.66;5100810;28;20398;-80
2024/03/30 04:11:23;;;;;;;40.72;5.95;;;;;;;7.76;100.00;95510.16;5099463;28;20394;-80
2024/03/30 04:13:49;;;;;;;56.20;7.40;;;;;;;7.73;100.00;95521.28;5098999;28;20487;-80
2024/03/30 04:16:16;;;;;;;44.77;7.03;;;;;;;7.70;100.00;95521.81;5106719;28;20398;-81
2024/03/30 04:18:43;;;;;;;46.15;6.72;;;;;;;7.67;100.00;95520.50;5110181;28;20412;-81
2024/03/30 04:21:09;;;;;;;52.23;6.27;;;;;;;7.66;100.00;95518.97;5108145;28;20405;-79
2024/03/30 04:23:36;;;;;;;27.58;4.88;;;;;;;7.62;100.00;95512.66;5107818;28;20488;-80
2024/03/30 04:26:04;;;;;;;44.13;6.28;;;;;;;7.63;100.00;95521.34;5109672;28;20396;-79
2024/03/30 04:28:31;;;;;;;43.97;6.30;;;;;;;7.58;100.00;95526.69;5110357;28;20487;-80
2024/03/30 04:30:57;;;;;;;34.03;5.05;;;;;;;7.55;100.00;95527.22;5116601;28;20396;-80
2024/03/30 04:33:24;;;;;;;46.08;6.60;;;;;;;7.49;100.00;95530.97;5102989;28;20419;-80
2024/03/30 04:35:55;;;;;;;43.10;5.73;;;;;;;7.44;100.00;95531.78;5110059;28;20497;-80
2024/03/30 04:38:21;;;;;;;32.08;5.13;;;;;;;7.47;100.00;95540.97;5112932;28;20447;-80
2024/03/30 04:40:57;;;;;;;39.38;5.72;;;;;;;7.46;100.00;95536.75;5114636;28;20438;-79
2024/03/30 04:43:24;;;;;;;44.60;6.00;;;;;;;7.38;100.00;95546.81;5103413;28;20760;-81
2024/03/30 04:45:50;;;;;;;45.40;5.57;;;;;;;7.39;100.00;95542.34;5107370;28;20443;-82
2024/03/30 04:48:17;;;;;;;32.70;5.13;;;;;;;7.40;100.00;95549.19;5098175;28;20397;-81
2024/03/30 04:50:43;;;;;;;34.85;5.45;;;;;;;7.41;100.00;95555.25;5107538;28;20501;-82
2024/03/30 04:53:09;;;;;;;36.90;5.57;;;;;;;7.36;100.00;95559.50;5107066;28;20406;-80
2024/03/30 04:55:35;;;;;;;31.80;5.13;;;;;;;7.34;100.00;95560.81;5105429;28;20913;-81
2024/03/30 04:58:03;;;;;;;38.75;5.75;;;;;;;7.33;100.00;95552.13;5106538;28;20398;-81
2024/03/30 05:00:29;;;;;;;34.13;6.18;;;;;;;7.35;100.00;95552.66;5098216;28;20402;-81
2024/03/30 05:02:55;;;;;;;27.90;5.43;;;;;;;7.27;100.00;95544.56;5114844;28;20398;-80
2024/03/30 05:05:21;;;;;;;38.42;5.47;;;;;;;7.31;100.00;95541.09;5105713;28;20835;-81
2024/03/30 05:07:47;;;;;;;32.40;5.65;;;;;;;7.33;100.00;95546.88;5097964;28;20430;-80
2024/03/30 05:10:14;;;;;;;44.88;5.90;;;;;;;7.34;100.00;95545.03;5106919;28;20424;-81
2024/03/30 05:12:40;;;;;;;44.20;6.72;;;;;;;7.39;100.00;95547.63;5105875;28;20390;-82
2024/03/30 05:15:08;;;;;;;38.80;6.22;;;;;;;7.41;100.00;95547.34;5101895;28;20408;-81
2024/03/30 05:17:34;;;;;;;53.72;5.40;;;;;;;7.42;100.00;95541.81;5110487;28;20404;-81
2024/03/30 05:22:45;;;;;;;45.65;6.35;;;;;;;7.47;100.00;95548.88;5098576;28;20802;-81
2024/03/30 05:25:12;;;;;;;39.42;4.60;;;;;;;7.51;100.00;95547.28;5106323;28;20394;-82
2024/03/30 05:27:38;;;;;;;37.80;5.32;;;;;;;7.55;100.00;95549.06;5107262;28;20497;-81
2024/03/30 05:30:05;;;;;;;37.22;5.80;;;;;;;7.54;100.00;95549.34;5124363;28;20384;-82
2024/03/30 05:32:33;;;;;;;34.50;5.78;;;;;;;7.64;100.00;95546.63;5114117;28;20460;-80
2024/03/30 05:35:00;;;;;;;27.52;5.03;;;;;;;7.70;100.00;95538.41;5105056;28;20463;-81
2024/03/30 05:37:26;;;;;;;35.28;5.28;;;;;;;7.77;100.00;95538.06;5106654;28;20390;-81
2024/03/30 05:39:53;;;;;;;39.30;5.75;;;;;;;7.81;100.00;95533.03;5100217;28;20440;-81
2024/03/30 05:42:19;;;;;;;36.63;5.00;;;;;;;7.88;100.00;95530.88;5101923;28;20471;-81
2024/03/30 05:44:47;;;;;;;38.13;6.13;;;;;;;8.00;100.00;95536.53;5102052;28;20895;-80
2024/03/30 05:47:13;;;;;;;31.33;4.07;;;;;;;8.00;100.00;95539.94;5114395;28;20901;-79
2024/03/30 05:49:41;;;;;;;35.05;4.75;;;;;;;8.10;100.00;95533.78;5118824;28;20449;-80
2024/03/30 05:52:07;;;;;;;36.38;5.60;;;;;;;8.28;100.00;95543.59;5114999;28;20859;-80
2024/03/30 05:54:33;;;;;;;29.02;5.03;;;;;;;8.35;100.00;95540.66;5100104;28;20421;-80
2024/03/30 05:56:59;;;;;;;55.70;6.45;;;;;;;8.32;100.00;95541.22;5101017;28;20398;-80
2024/03/30 05:59:25;;;;;;;24.10;3.97;;;;;;;8.51;100.00;95545.47;5119274;28;20454;-80
2024/03/30 06:01:51;;;;;;;25.88;4.88;;;;;;;8.56;100.00;95544.63;5114655;28;20414;-80
2024/03/30 06:04:17;;;;;;;32.27;4.97;;;;;;;8.68;100.00;95539.72;5116075;28;20861;-79
2024/03/30 06:06:45;;;;;;;22.38;4.07;;;;;;;8.87;100.00;95545.03;5119660;28;20388;-80
2024/03/30 06:09:11;;;;;;;25.70;4.38;;;;;;;8.92;100.00;95544.94;5108209;28;20417;-80
2024/03/30 06:11:37;;;;;;;30.02;4.80;;;;;;;9.22;100.00;95539.22;5115324;28;20474;-77
2024/03/30 06:14:03;;;;;;;32.43;5.67;;;;;;;9.28;100.00;95532.78;5104600;28;20494;-77
2024/03/30 06:16:29;;;;;;;27.30;4.43;;;;;;;9.31;100.00;95532.22;5095134;28;20485;-80
2024/03/30 06:18:55;;;;;;;17.30;3.22;;;;;;;9.60;100.00;95525.97;5101042;28;20405;-80
2024/03/30 06:21:22;;;;;;;25.93;4.67;;;;;;;9.72;100.00;95523.63;5101777;28;20447;-80
2024/03/30 06:23:50;;;;;;;16.50;3.65;;;;;;;9.84;100.00;95513.38;5099191;28;20810;-81
2024/03/30 06:26:16;;;;;;;24.23;4.53;;;;;;;9.93;100.00;95516.91;5099391;28;20486;-80
2024/03/30 06:28:42;;;;;;;19.88;4.90;;;;;;;10.07;100.00;95511.66;5100355;28;20398;-80
2024/03/30 06:31:08;;;;;;;20.58;3.90;;;;;;;10.33;100.00;95512.75;5099943;28;20402;-81
2024/03/30 06:33:35;;;;;;;10.20;2.50;;;;;;;10.47;100.00;95510.88;5103625;28;20477;-80
2024/03/30 06:36:01;;;;;;;8.93;2.80;;;;;;;10.64;100.00;95504.19;5100700;28;20424;-79
2024/03/30 06:38:27;;;;;;;14.48;3.03;;;;;;;10.71;100.00;95497.41;5098809;28;20406;-79
2024/03/30 06:43:42;;;;;;;19.67;4.32;;;;;;;10.80;100.00;95497.50;5099823;28;20445;-81
2024/03/30 06:46:08;;;;;;;35.13;5.10;;;;;;;10.77;100.00;95493.56;5098709;28;20867;-80
2024/03/30 06:48:34;;;;;;;13.57;2.70;;;;;;;11.00;100.00;95497.03;5097541;28;20416;-79
2024/03/30 06:51:00;;;;;;;13.32;3.45;;;;;;;11.14;100.00;95495.13;5097914;28;20404;-80
2024/03/30 06:53:26;;;;;;;22.58;3.92;;;;;;;11.09;100.00;95500.53;5106488;28;20405;-81
2024/03/30 06:55:55;;;;;;;28.88;4.50;;;;;;;11.05;100.00;95490.84;5102479;28;20398;-79
2024/03/30 06:58:22;;;;;;;39.15;5.38;;;;;;;10.93;100.00;95491.38;5097742;28;20451;-80
2024/03/30 07:00:48;;;;;;;24.90;4.35;;;;;;;11.22;100.00;95485.66;5098421;28;20417;-81
2024/03/30 07:03:14;;;;;;;23.27;4.65;;;;;;;11.04;100.00;95486.66;5108446;28;20477;-81
2024/03/30 07:05:41;;;;;;;20.83;3.45;;;;;;;11.29;100.00;95493.19;5099189;28;20397;-81
2024/03/30 07:08:07;;;;;;;15.70;3.90;;;;;;;11.33;100.00;95496.81;5109938;28;20396;-81
2024/03/30 07:10:34;;;;;;;15.98;2.50;;;;;;;11.53;100.00;95501.63;5084863;28;20402;-82
2024/03/30 07:13:01;;;;;;;37.30;5.47;;;;;;;11.35;100.00;95495.41;5098176;28;20394;-81
2024/03/30 07:15:28;;;;;;;19.08;3.83;;;;;;;11.52;100.00;95487.59;5098533;28;20786;-80
2024/03/30 07:17:54;;;;;;;19.05;4.38;;;;;;;11.60;100.00;95483.41;5106750;28;20398;-82
2024/03/30 07:20:20;;;;;;;23.50;3.92;;;;;;;11.49;100.00;95485.56;5101957;28;20404;-80
2024/03/30 07:22:46;;;;;;;19.07;3.03;;;;;;;11.48;100.00;95489.28;5100334;28;20773;-80
2024/03/30 07:25:13;;;;;;;51.35;6.80;;;;;;;11.25;100.00;95487.72;5103784;28;20406;-80
2024/03/30 07:27:39;;;;;;;14.23;2.75;;;;;;;11.40;100.00;95487.38;5106230;28;20398;-80
2024/03/30 07:30:08;;;;;;;12.75;2.90;;;;;;;11.45;100.00;95486.44;5116262;28;20488;-80
2024/03/30 07:32:35;;;;;;;17.98;4.95;;;;;;;11.42;100.00;95489.72;5107543;28;20409;-79
2024/03/30 07:35:01;;;;;;;22.83;3.23;;;;;;;11.30;100.00;95492.09;5102621;28;20440;-79
2024/03/30 07:37:28;;;;;;;18.15;3.53;;;;;;;11.27;100.00;95492.72;5113794;28;20799;-78
2024/03/30 07:39:54;;;;;;;19.40;4.07;;;;;;;11.17;100.00;95488.44;5094037;28;20394;-78
2024/03/30 07:42:21;;;;;;;24.60;3.78;;;;;;;11.28;100.00;95499.59;5094823;28;20412;-79
2024/03/30 07:44:47;;;;;;;20.90;3.10;;;;;;;11.24;100.00;95488.81;5096344;28;20486;-80
2024/03/30 07:47:15;;;;;;;19.25;4.32;;;;;;;11.27;100.00;95492.72;5096407;28;20426;-80
2024/03/30 07:49:41;;;;;;;14.77;3.33;;;;;;;11.21;100.00;95489.41;5095708;28;20429;-80
2024/03/30 07:52:07;;;;;;;22.02;3.35;;;;;;;11.01;100.00;95492.53;5101449;28;20402;-79
2024/03/30 07:54:33;;;;;;;24.92;3.85;;;;;;;10.97;100.00;95494.22;5098017;28;20410;-80
2024/03/30 07:57:00;;;;;;;22.63;3.47;;;;;;;11.00;100.00;95496.25;5100851;28;20916;-77
2024/03/30 07:59:27;;;;;;;25.17;4.35;;;;;;;11.01;100.00;95489.88;5101202;28;20890;-80
2024/03/30 08:01:53;;;;;;;23.45;3.80;;;;;;;10.96;100.00;95488.13;5096259;28;20402;-77
2024/03/30 08:04:21;;;;;;;29.15;4.95;;;;;;;10.99;100.00;95489.38;5096602;28;20413;-79
2024/03/30 08:06:49;;;;;;;26.38;3.67;;;;;;;11.04;100.00;95486.66;5100774;28;20389;-79
2024/03/30 08:09:15;;;;;;;26.98;4.68;;;;;;;11.07;100.00;95478.09;5095805;28;20398;-79
2024/03/30 08:11:43;;;;;;;21.33;4.00;;;;;;;11.13;100.00;95480.31;5095993;28;20485;-79
2024/03/30 08:14:10;;;;;;;29.50;5.20;;;;;;;11.16;100.00;95484.22;5108441;28;20408;-78
2024/03/30 08:16:36;;;;;;;41.65;4.25;;;;;;;11.05;100.00;95493.50;5100488;28;20409;-78
2024/03/30 08:19:04;;;;;;;26.65;4.13;;;;;;;11.22;100.00;95494.41;5096422;28;20427;-78
2024/03/30 08:21:31;;;;;;;41.35;6.22;;;;;;;11.14;100.00;95497.75;5112739;28;20396;-78
2024/03/30 08:23:57;;;;;;;23.17;3.85;;;;;;;11.19;100.00;95497.66;5116969;28;20456;-78
2024/03/30 08:26:24;;;;;;;23.15;3.92;;;;;;;11.23;100.00;95493.31;5113924;28;20398;-79
2024/03/30 08:28:50;;;;;;;22.65;3.67;;;;;;;11.25;100.00;95503.63;5110883;28;20402;-79
2024/03/30 08:31:16;;;;;;;33.65;5.00;;;;;;;11.16;100.00;95502.75;5109045;28;20406;-79
2024/03/30 08:33:43;;;;;;;30.25;5.20;;;;;;;11.22;100.00;95502.34;5102477;28;20473;-79
2024/03/30 08:36:09;;;;;;;26.07;3.80;;;;;;;11.21;100.00;95508.72;5103488;28;20553;-79
2024/03/30 08:38:36;;;;;;;16.58;3.80;;;;;;;11.25;100.00;95503.63;5104095;28;20410;-79
2024/03/30 08:41:03;;;;;;;34.17;6.20;;;;;;;11.20;100.00;95501.09;5109028;28;20880;-80
2024/03/30 08:43:29;;;;;;;21.67;4.90;;;;;;;11.35;100.00;95499.97;5117181;28;20422;-79
2024/03/30 08:45:57;;;;;;;29.90;4.78;;;;;;;11.24;100.00;95504.69;5100535;28;20473;-79
2024/03/30 08:48:23;;;;;;;32.65;5.28;;;;;;;11.24;100.00;95502.84;5115460;28;20392;-78
2024/03/30 08:50:50;;;;;;;31.70;5.13;;;;;;;11.16;100.00;95495.59;5104134;28;20484;-79
2024/03/30 08:53:16;;;;;;;41.83;5.50;;;;;;;11.14;100.00;95497.75;5098298;28;20416;-79
2024/03/30 08:55:43;;;;;;;18.83;3.00;;;;;;;11.19;100.00;95487.06;5116892;28;20420;-79
2024/03/30 08:58:10;;;;;;;19.75;4.15;;;;;;;11.20;100.00;95485.97;5113068;28;20910;-79
2024/03/30 09:00:36;;;;;;;28.05;4.43;;;;;;;11.13;100.00;95479.53;5098457;28;20927;-78
2024/03/30 09:03:03;;;;;;;29.55;4.15;;;;;;;11.11;100.00;95479.06;5114515;28;20426;-78
2024/03/30 09:05:32;;;;;;;19.23;3.67;;;;;;;11.15;100.00;95480.00;5107681;28;20403;-78
2024/03/30 09:07:58;;;;;;;21.77;3.90;;;;;;;11.15;100.00;95490.59;5108040;28;20427;-79
2024/03/30 09:10:25;;;;;;;23.17;4.30;;;;;;;11.12;100.00;95488.56;5109920;28;20396;-80
2024/03/30 09:12:53;;;;;;;13.87;2.73;;;;;;;11.19;100.00;95496.88;5108429;28;20394;-79
2024/03/30 09:15:19;;;;;;;30.30;3.92;;;;;;;11.28;100.00;95497.69;5115927;28;20456;-80
2024/03/30 09:17:46;;;;;;;24.10;4.25;;;;;;;11.28;100.00;95495.06;5107345;28;20404;-79
2024/03/30 09:20:12;;;;;;;41.08;5.85;;;;;;;11.23;100.00;95501.25;5116173;28;20414;-79
2024/03/30 09:22:38;;;;;;;22.65;3.92;;;;;;;11.28;100.00;95510.19;5099815;28;20390;-78
2024/03/30 09:25:12;;;;;;;17.38;3.60;;;;;;;11.24;100.00;95520.59;5107592;28;20400;-80
2024/03/30 09:27:39;;;;;;;10.35;2.78;;;;;;;11.25;100.00;95516.88;5108496;28;20394;-79
2024/03/30 09:30:08;;;;;;;18.60;3.53;;;;;;;11.23;100.00;95527.75;5108171;28;20411;-78
2024/03/30 09:32:36;;;;;;;14.48;3.28;;;;;;;11.25;100.00;95528.25;5100526;28;20716;-78
2024/03/30 09:35:02;;;;;;;15.65;3.17;;;;;;;11.30;100.00;95518.59;5097903;28;20404;-78
2024/03/30 09:37:28;;;;;;;14.35;3.00;;;;;;;11.28;100.00;95524.19;5107062;28;20889;-78
2024/03/30 09:39:54;;;;;;;6.13;2.28;;;;;;;11.31;100.00;95514.88;5114063;28;20423;-79
2024/03/30 09:42:29;;;;;;;28.88;4.18;;;;;;;11.35;100.00;95515.84;5093277;28;20478;-79
2024/03/30 09:44:56;;;;;;;27.10;4.20;;;;;;;11.27;100.00;95511.28;5100912;28;20871;-77
2024/03/30 09:47:25;;;;;;;28.63;4.43;;;;;;;11.30;100.00;95510.66;5100459;28;20481;-78
2024/03/30 09:49:52;;;;;;;10.30;2.70;;;;;;;11.32;100.00;95511.94;5102185;28;20463;-78
2024/03/30 09:52:23;;;;;;;21.20;3.70;;;;;;;11.38;100.00;95501.97;5107909;28;20398;-78
2024/03/30 09:54:51;;;;;;;21.85;3.97;;;;;;;11.42;100.00;95502.97;5092467;28;20409;-78
2024/03/30 09:57:19;;;;;;;20.30;3.80;;;;;;;11.37;100.00;95492.47;5107835;28;20452;-79
2024/03/30 09:59:45;;;;;;;25.27;4.13;;;;;;;11.43;100.00;95488.59;5106074;28;20402;-78
2024/03/30 10:02:11;;;;;;;42.70;5.18;;;;;;;11.40;100.00;95489.22;5100079;28;20804;-77
2024/03/30 10:04:39;;;;;;;29.65;5.18;;;;;;;11.38;100.00;95488.75;5091867;28;20398;-78
2024/03/30 10:07:12;;;;;;;22.83;4.15;;;;;;;11.42;100.00;95493.16;5103869;28;20756;-78
2024/03/30 10:09:38;;;;;;;28.75;5.35;;;;;;;11.39;100.00;95507.00;5104840;28;20812;-77
2024/03/30 10:12:15;;;;;;;18.42;4.00;;;;;;;11.45;100.00;95499.69;5102934;28;20394;-78
2024/03/30 10:14:48;;;;;;;11.70;2.40;;;;;;;11.47;100.00;95505.47;5102171;28;20472;-80
2024/03/30 10:17:15;;;;;;;23.23;3.78;;;;;;;11.52;100.00;95506.13;5108931;28;20818;-79
2024/03/30 10:19:44;;;;;;;16.67;3.28;;;;;;;11.56;100.00;95501.81;5102374;28;20400;-77
2024/03/30 10:22:10;;;;;;;19.10;3.95;;;;;;;11.66;100.00;95495.44;5094260;28;20395;-78
2024/03/30 10:24:36;;;;;;;23.00;4.43;;;;;;;11.77;100.00;95486.19;5109793;28;20392;-78
2024/03/30 10:27:03;;;;;;;33.20;5.18;;;;;;;11.76;100.00;95499.75;5103479;28;20419;-79
2024/03/30 10:29:29;;;;;;;39.08;5.72;;;;;;;11.81;100.00;95491.66;5109603;28;20405;-79
2024/03/30 10:31:55;;;;;;;15.77;2.97;;;;;;;11.87;100.00;95478.00;5104076;28;20437;-79
2024/03/30 10:34:22;;;;;;;16.95;4.47;;;;;;;11.93;100.00;95492.69;5099175;28;20418;-78
2024/03/30 10:36:49;;;;;;;17.87;3.70;;;;;;;11.98;100.00;95489.88;5102273;28;20388;-79
2024/03/30 10:39:15;;;;;;;29.55;6.53;;;;;;;11.97;100.00;95485.66;5119895;28;20400;-79
2024/03/30 10:41:42;;;;;;;25.38;4.30;;;;;;;12.01;100.00;95488.50;5102462;28;20394;-79
2024/03/30 10:44:08;;;;;;;23.23;4.38;;;;;;;12.08;100.00;95486.19;5103006;28;20487;-79
2024/03/30 10:46:34;;;;;;;27.38;3.67;;;;;;;12.09;100.00;95494.91;5108667;28;20449;-78
2024/03/30 10:49:00;;;;;;;16.33;3.08;;;;;;;12.11;100.00;95488.19;5118142;28;20380;-79
2024/03/30 10:51:27;;;;;;;27.80;5.13;;;;;;;12.15;100.00;95481.22;5103893;28;20422;-79
2024/03/30 10:54:04;;;;;;;30.60;4.70;;;;;;;12.14;100.00;95481.50;5095210;28;20417;-78
2024/03/30 10:56:30;;;;;;;31.42;3.80;;;;;;;12.23;100.00;95477.03;5097659;28;20388;-79
2024/03/30 10:59:00;;;;;;;42.70;5.25;;;;;;;12.17;100.00;95479.03;5108270;28;20798;-78
2024/03/30 11:01:29;;;;;;;16.27;3.97;;;;;;;12.28;100.00;95475.00;5113110;28;20442;-79
2024/03/30 11:03:56;;;;;;;28.25;4.53;;;;;;;12.33;100.00;95474.06;5100917;28;20402;-79
2024/03/30 11:06:23;;;;;;;15.77;4.10;;;;;;;12.41;100.00;95474.09;5108477;28;20780;-79
2024/03/30 11:08:51;;;;;;;18.20;3.53;;;;;;;12.51;100.00;95472.25;5105675;28;20866;-79
2024/03/30 11:11:20;;;;;;;22.27;4.57;;;;;;;12.52;100.00;95474.59;5105894;28;20746;-80
2024/03/30 11:13:46;;;;;;;28.60;5.15;;;;;;;12.54;100.00;95480.38;5096498;28;20521;-79
2024/03/30 11:16:14;;;;;;;19.85;3.90;;;;;;;12.59;100.00;95471.47;5103237;28;20446;-78
2024/03/30 11:19:00;;;;;;;35.10;5.25;;;;;;;12.67;100.00;95479.47;5117071;28;20392;-79
2024/03/30 11:21:32;;;;;;;13.63;3.15;;;;;;;12.84;100.00;95475.28;5102239;28;20397;-79
2024/03/30 11:24:03;;;;;;;15.93;3.38;;;;;;;12.90;100.00;95477.47;5107595;28;20531;-78
2024/03/30 11:26:36;;;;;;;24.60;4.28;;;;;;;13.01;100.00;95469.94;5099823;28;20409;-78